Terminal Aerodrome Forecast
Issued by NWS Shreveport, LA

Home | Current Version | Previous Version | Text Only | Print | Product List | Glossary On
Versions: 1 2 3 4 5 6 7 8 9 10 11 12 13
000
FTUS44 KSHV 041139
TAFMLU
TAF
KMLU 041139Z 0412/0512 VRB04KT P6SM FEW120
      TEMPO 0412/0414 5SM BR
     FM041700 17005KT P6SM SCT045 SCT250
     FM050000 VRB03KT P6SM FEW070 SCT250
     FM050600 00000KT P6SM SCT250=

USA.gov is the U.S. government's official web portal to all federal, state and local government web resources and services.